Time;durP1;ratioP1;P1;durP2;ratioP2;P2;SDS_P1;SDS_P2;PMS_P1;PMS_P2;Temp;Humidity;BMP_temperature;BMP_pressure;BME280_temperature;BME280_humidity;BME280_pressure;Samples;Min_cycle;Max_cycle;Signal;HPM_P1;HPM_P2
2023/07/04 00:03:59;;;;;;;5.22;2.28;;;;;;;17.45;100.00;99484.19;12216169;19;20011;-77
2023/07/04 00:08:01;;;;;;;9.27;2.78;;;;;;;17.44;100.00;99483.38;12214675;19;20452;-77
2023/07/04 00:12:03;;;;;;;3.88;2.40;;;;;;;17.41;100.00;99488.72;12192630;19;20382;-77
2023/07/04 00:16:07;;;;;;;6.10;2.58;;;;;;;17.37;100.00;99482.94;12219292;19;20028;-77
2023/07/04 00:20:10;;;;;;;7.53;3.03;;;;;;;17.34;100.00;99477.13;12208709;19;20361;-77
2023/07/04 00:24:11;;;;;;;4.57;2.80;;;;;;;17.27;100.00;99483.09;12192717;19;20039;-77
2023/07/04 00:28:13;;;;;;;6.15;2.30;;;;;;;17.21;100.00;99479.53;12212815;19;20006;-77
2023/07/04 00:32:16;;;;;;;5.33;2.50;;;;;;;17.16;100.00;99485.19;12214637;19;20080;-77
2023/07/04 00:36:19;;;;;;;6.93;2.93;;;;;;;17.12;100.00;99480.53;12189408;19;20031;-78
2023/07/04 00:40:20;;;;;;;5.57;2.75;;;;;;;17.03;100.00;99472.03;12212536;19;20015;-77
2023/07/04 00:44:24;;;;;;;4.15;2.50;;;;;;;16.97;100.00;99479.63;12209547;19;20014;-77
2023/07/04 00:48:26;;;;;;;5.15;2.25;;;;;;;16.95;100.00;99478.25;12189083;19;20511;-76
2023/07/04 00:52:33;;;;;;;7.32;3.05;;;;;;;16.91;100.00;99486.41;12209275;19;20010;-77
2023/07/04 00:56:35;;;;;;;4.30;2.28;;;;;;;16.87;100.00;99484.53;12211090;19;20009;-77
2023/07/04 01:00:38;;;;;;;6.75;3.00;;;;;;;16.82;100.00;99497.38;12188440;19;20028;-76
2023/07/04 01:04:40;;;;;;;4.28;2.33;;;;;;;16.77;100.00;99491.84;12210816;19;20014;-76
2023/07/04 01:08:44;;;;;;;6.97;2.80;;;;;;;16.73;100.00;99503.88;12209532;19;20035;-76
2023/07/04 01:12:46;;;;;;;5.50;2.30;;;;;;;16.69;100.00;99500.84;12183823;19;20015;-77
2023/07/04 01:16:49;;;;;;;7.38;3.15;;;;;;;16.66;100.00;99500.59;12207561;19;20015;-77
2023/07/04 01:20:52;;;;;;;;;;;;;;;16.58;100.00;99505.72;12195336;19;20010;-77
2023/07/04 01:25:13;;;;;;;5.10;2.55;;;;;;;16.54;100.00;99503.84;12208647;19;19955;-77
2023/07/04 01:29:17;;;;;;;5.53;2.60;;;;;;;16.45;100.00;99506.44;12208662;19;20007;-76
2023/07/04 01:33:21;;;;;;;6.18;2.60;;;;;;;16.37;100.00;99502.34;12187094;19;20027;-76
2023/07/04 01:37:22;;;;;;;5.78;2.65;;;;;;;16.34;100.00;99513.25;12207949;19;20010;-76
2023/07/04 01:41:24;;;;;;;5.80;2.70;;;;;;;16.28;100.00;99512.47;12211209;19;20081;-76
2023/07/04 01:45:26;;;;;;;10.40;3.10;;;;;;;16.24;100.00;99514.19;12186721;19;20006;-77
2023/07/04 01:49:28;;;;;;;5.32;2.63;;;;;;;16.22;100.00;99516.44;12210442;19;20070;-76
2023/07/04 01:53:30;;;;;;;5.20;2.70;;;;;;;16.20;100.00;99513.09;12205520;19;20079;-77
2023/07/04 01:57:31;;;;;;;6.80;2.80;;;;;;;16.16;100.00;99526.75;12184467;19;20007;-77
2023/07/04 02:01:33;;;;;;;5.10;3.10;;;;;;;16.12;100.00;99527.63;12208228;19;20374;-77
2023/07/04 02:05:36;;;;;;;6.25;2.83;;;;;;;16.06;100.00;99534.38;12208581;19;20105;-77
2023/07/04 02:09:39;;;;;;;7.50;2.65;;;;;;;16.01;100.00;99540.00;12187230;19;20739;-77
2023/07/04 02:13:41;;;;;;;8.02;2.80;;;;;;;15.94;100.00;99534.75;12207878;19;20007;-77
2023/07/04 02:17:43;;;;;;;8.57;4.55;;;;;;;15.91;100.00;99540.91;12207704;19;20007;-78
2023/07/04 02:21:44;;;;;;;6.60;3.03;;;;;;;15.86;100.00;99541.78;12185313;19;20017;-77
2023/07/04 02:25:47;;;;;;;4.95;2.70;;;;;;;15.78;100.00;99541.59;12207108;19;20578;-77
2023/07/04 02:29:49;;;;;;;6.10;2.85;;;;;;;15.71;100.00;99541.94;12205765;19;20010;-77
2023/07/04 02:33:52;;;;;;;6.00;3.27;;;;;;;15.66;100.00;99551.09;12186195;19;20122;-78
2023/07/04 02:37:54;;;;;;;7.78;3.03;;;;;;;15.63;100.00;99542.50;12204502;19;20240;-77
2023/07/04 02:41:56;;;;;;;5.25;3.10;;;;;;;15.61;100.00;99547.50;12186131;19;20401;-77
2023/07/04 02:45:59;;;;;;;7.28;3.00;;;;;;;15.56;100.00;99545.63;12206178;19;20679;-77
2023/07/04 02:50:02;;;;;;;7.28;3.28;;;;;;;15.52;100.00;99549.25;12205124;19;20035;-76
2023/07/04 02:54:03;;;;;;;6.70;3.35;;;;;;;15.48;100.00;99544.28;12183115;19;20011;-77
2023/07/04 02:58:08;;;;;;;7.72;3.50;;;;;;;15.45;100.00;99547.63;12205893;19;20003;-77
2023/07/04 03:02:10;;;;;;;12.50;3.75;;;;;;;15.42;100.00;99552.94;12206102;19;20084;-76
2023/07/04 03:06:12;;;;;;;7.47;3.42;;;;;;;15.38;100.00;99555.47;12181863;19;20018;-77
2023/07/04 03:10:15;;;;;;;6.80;3.20;;;;;;;15.34;100.00;99553.53;12205960;19;20031;-77
2023/07/04 03:14:17;;;;;;;8.73;2.70;;;;;;;15.30;100.00;99558.84;12215742;19;20010;-77
2023/07/04 03:18:19;;;;;;;8.77;3.10;;;;;;;15.27;100.00;99565.78;12194119;19;20531;-77
2023/07/04 03:22:23;;;;;;;4.85;3.00;;;;;;;15.25;100.00;99561.63;12217165;19;20078;-77
2023/07/04 03:26:25;;;;;;;6.60;3.27;;;;;;;15.23;100.00;99569.44;12215745;19;20006;-77
2023/07/04 03:30:27;;;;;;;6.05;3.33;;;;;;;15.22;100.00;99567.78;12195831;19;20023;-76
2023/07/04 03:34:35;;;;;;;9.95;3.63;;;;;;;15.21;100.00;99571.66;12217510;19;20010;-76
2023/07/04 03:38:37;;;;;;;6.30;3.15;;;;;;;15.19;100.00;99579.44;12217710;19;20362;-77
2023/07/04 03:42:39;;;;;;;6.60;3.20;;;;;;;15.17;100.00;99579.75;12194352;19;20424;-77
2023/07/04 03:46:42;;;;;;;5.53;3.45;;;;;;;15.18;100.00;99586.94;12215549;19;19999;-76
2023/07/04 03:50:44;;;;;;;6.63;3.08;;;;;;;15.18;100.00;99586.94;12217283;19;20010;-78
2023/07/04 03:54:46;;;;;;;9.35;3.72;;;;;;;15.16;100.00;99589.16;12198415;19;20026;-77
2023/07/04 03:58:48;;;;;;;7.82;3.63;;;;;;;15.16;100.00;99596.66;12216518;19;20083;-78
2023/07/04 04:02:50;;;;;;;8.48;4.28;;;;;;;15.18;100.00;99589.72;12215618;19;20066;-77
2023/07/04 04:06:56;;;;;;;8.48;3.83;;;;;;;15.21;100.00;99600.25;12215266;19;20025;-77
2023/07/04 04:10:58;;;;;;;7.57;4.38;;;;;;;15.22;100.00;99596.34;12221368;19;20086;-77
2023/07/04 04:15:00;;;;;;;8.23;3.92;;;;;;;15.25;100.00;99592.19;12202720;19;20038;-77
2023/07/04 04:19:03;;;;;;;9.88;4.05;;;;;;;15.26;100.00;99603.00;12216939;19;20686;-77
2023/07/04 04:23:05;;;;;;;7.40;3.92;;;;;;;15.29;100.00;99598.84;12212849;19;20022;-76
2023/07/04 04:27:11;;;;;;;7.70;3.47;;;;;;;15.32;100.00;99605.72;12190002;19;20031;-77
2023/07/04 04:31:14;;;;;;;7.40;3.85;;;;;;;15.34;100.00;99604.34;12212221;19;20014;-77
2023/07/04 04:35:16;;;;;;;8.77;4.00;;;;;;;15.36;100.00;99604.06;12214556;19;20006;-77
2023/07/04 04:39:18;;;;;;;7.37;3.80;;;;;;;15.41;100.00;99615.97;12191681;19;20006;-77
2023/07/04 04:43:21;;;;;;;10.05;4.78;;;;;;;15.47;100.00;99614.00;12211415;19;20477;-77
2023/07/04 04:47:24;;;;;;;6.10;3.20;;;;;;;15.53;100.00;99620.31;12212442;19;20362;-76
2023/07/04 04:51:26;;;;;;;8.95;4.43;;;;;;;15.59;100.00;99622.81;12190061;19;20063;-77
2023/07/04 04:55:29;;;;;;;6.22;3.55;;;;;;;15.64;100.00;99619.97;12210988;19;20042;-77
2023/07/04 04:59:32;;;;;;;11.98;3.97;;;;;;;15.70;100.00;99626.34;12211633;19;20010;-77
2023/07/04 05:03:34;;;;;;;9.02;4.18;;;;;;;15.79;100.00;99632.13;12188780;19;20024;-77
2023/07/04 05:07:38;;;;;;;9.02;4.00;;;;;;;15.86;100.00;99636.25;12210041;19;20012;-76
2023/07/04 05:11:41;;;;;;;10.77;4.50;;;;;;;15.98;100.00;99640.63;12211384;19;20011;-76
2023/07/04 05:15:43;;;;;;;11.00;4.60;;;;;;;16.07;100.00;99639.72;12190245;19;20111;-77
2023/07/04 05:19:48;;;;;;;7.80;4.13;;;;;;;16.16;100.00;99642.69;12212464;19;20403;-77
2023/07/04 05:23:54;;;;;;;9.07;3.97;;;;;;;16.26;100.00;99650.94;12207201;19;20496;-78
2023/07/04 05:27:56;;;;;;;9.48;4.15;;;;;;;16.33;100.00;99645.88;12209224;19;20019;-77
2023/07/04 05:31:58;;;;;;;10.68;4.60;;;;;;;16.44;100.00;99645.78;12209224;19;20013;-77
2023/07/04 05:36:02;;;;;;;12.65;4.50;;;;;;;16.54;100.00;99648.47;12184580;19;20014;-77
2023/07/04 05:40:04;;;;;;;9.32;3.90;;;;;;;16.66;100.00;99650.84;12209954;19;20074;-76
2023/07/04 05:44:09;;;;;;;10.02;4.55;;;;;;;16.75;100.00;99643.53;12207033;19;20013;-77
2023/07/04 05:48:11;;;;;;;9.00;4.43;;;;;;;16.82;100.00;99639.28;12179492;19;20150;-77
2023/07/04 05:52:13;;;;;;;;;;;;;;;16.89;100.00;99649.22;12194594;19;20434;-77
2023/07/04 05:56:21;;;;;;;10.40;3.72;;;;;;;17.03;100.00;99648.22;12193459;19;19959;-77
2023/07/04 06:00:23;;;;;;;8.70;4.45;;;;;;;17.16;100.00;99652.22;12188196;19;20013;-76
2023/07/04 06:04:25;;;;;;;12.57;4.28;;;;;;;17.28;100.00;99662.94;12207759;19;20002;-77
2023/07/04 06:08:28;;;;;;;7.63;3.90;;;;;;;17.36;100.00;99655.91;12211172;19;20018;-78
2023/07/04 06:12:30;;;;;;;9.83;3.90;;;;;;;17.45;100.00;99657.72;12187258;19;20006;-76
2023/07/04 06:16:34;;;;;;;8.02;4.40;;;;;;;17.59;100.00;99662.56;12209361;19;20015;-77
2023/07/04 06:20:37;;;;;;;11.05;4.03;;;;;;;17.69;100.00;99666.00;12207975;19;20006;-76
2023/07/04 06:24:43;;;;;;;6.90;3.40;;;;;;;17.84;100.00;99669.75;12185025;19;20021;-77
2023/07/04 06:28:45;;;;;;;8.20;4.07;;;;;;;17.97;100.00;99661.47;12208285;19;20023;-77
2023/07/04 06:32:46;;;;;;;9.40;3.75;;;;;;;18.09;100.00;99666.56;12208951;19;20027;-76
2023/07/04 06:36:50;;;;;;;11.50;3.67;;;;;;;18.20;100.00;99673.66;12183608;19;20015;-76
2023/07/04 06:41:03;;;;;;;8.37;3.47;;;;;;;18.33;97.67;99672.03;12209102;19;20025;-76
2023/07/04 06:45:05;;;;;;;13.27;3.90;;;;;;;18.43;87.98;99676.59;12186596;19;20013;-76
2023/07/04 06:49:10;;;;;;;12.15;3.65;;;;;;;18.52;85.61;99673.94;12219770;19;20011;-76
2023/07/04 06:53:12;;;;;;;10.43;4.15;;;;;;;18.72;86.53;99675.53;12218182;19;20077;-77
2023/07/04 06:57:13;;;;;;;8.83;3.67;;;;;;;18.93;82.96;99681.59;12195251;19;20046;-77
2023/07/04 07:01:16;;;;;;;12.15;3.85;;;;;;;19.15;82.05;99686.47;12217980;19;20491;-77
2023/07/04 07:05:19;;;;;;;11.82;3.03;;;;;;;19.24;76.73;99681.81;12216619;19;20011;-76
2023/07/04 07:09:22;;;;;;;;;;;;;;;19.38;75.37;99685.44;12199298;19;20003;-77
2023/07/04 07:13:26;;;;;;;11.52;3.10;;;;;;;19.63;73.11;99698.06;12216273;19;19916;-77
2023/07/04 07:17:32;;;;;;;12.02;3.50;;;;;;;19.78;71.90;99692.16;12217563;19;20071;-77
2023/07/04 07:21:37;;;;;;;8.35;3.80;;;;;;;19.94;70.97;99689.81;12199067;19;20014;-77
2023/07/04 07:25:39;;;;;;;6.45;3.05;;;;;;;20.14;69.64;99696.91;12233330;19;20003;-79
2023/07/04 07:29:41;;;;;;;13.95;3.42;;;;;;;20.31;66.60;99704.59;12246318;19;20014;-79
2023/07/04 07:33:51;;;;;;;12.07;3.25;;;;;;;20.50;65.31;99696.03;12194447;19;20010;-77
2023/07/04 07:37:54;;;;;;;9.18;3.10;;;;;;;20.62;61.28;99712.28;12215760;19;20377;-77
2023/07/04 07:41:56;;;;;;;9.05;3.13;;;;;;;20.71;60.68;99710.34;12196913;19;20017;-77
2023/07/04 07:45:58;;;;;;;8.60;3.20;;;;;;;20.86;60.45;99709.13;12218837;19;20067;-77
2023/07/04 07:50:01;;;;;;;10.63;2.88;;;;;;;20.82;56.22;99717.34;12219773;19;20499;-77
2023/07/04 07:54:10;;;;;;;8.98;3.05;;;;;;;20.86;58.14;99709.13;12198196;19;20030;-78
2023/07/04 07:58:13;;;;;;;8.15;3.30;;;;;;;21.16;56.04;99711.09;12215896;19;20386;-78
2023/07/04 08:02:14;;;;;;;11.67;3.70;;;;;;;21.27;54.25;99708.00;12216047;19;20390;-78
2023/07/04 08:06:25;;;;;;;8.63;3.45;;;;;;;21.28;54.98;99702.06;12193118;19;20014;-78
2023/07/04 08:10:27;;;;;;;9.35;3.25;;;;;;;21.50;55.02;99700.34;12218933;19;20202;-78
2023/07/04 08:14:29;;;;;;;7.35;3.35;;;;;;;21.73;53.83;99695.47;12214560;19;20026;-78
2023/07/04 08:18:32;;;;;;;8.60;2.80;;;;;;;21.82;52.47;99694.31;12197054;19;20006;-77
2023/07/04 08:22:35;;;;;;;8.50;2.92;;;;;;;22.00;52.69;99689.53;12217103;19;20021;-79
2023/07/04 08:26:39;;;;;;;11.18;3.00;;;;;;;22.04;50.78;99675.69;12216017;19;20859;-78
2023/07/04 08:30:41;;;;;;;7.50;3.10;;;;;;;22.16;49.28;99680.63;12191990;19;20015;-78
2023/07/04 08:34:45;;;;;;;6.72;3.20;;;;;;;22.22;49.43;99683.00;12214589;19;20465;-79
2023/07/04 08:38:49;;;;;;;7.13;3.00;;;;;;;22.37;49.27;99680.81;12215667;19;20019;-78
2023/07/04 08:42:51;;;;;;;8.70;3.30;;;;;;;22.67;50.00;99678.97;12194377;19;20056;-78
2023/07/04 08:46:57;;;;;;;10.63;3.08;;;;;;;22.85;48.21;99679.75;12214076;19;20014;-78
2023/07/04 08:51:02;;;;;;;10.48;3.13;;;;;;;22.95;46.40;99682.22;12197562;19;20027;-78
2023/07/04 08:55:10;;;;;;;8.73;3.58;;;;;;;23.00;46.52;99676.41;12223127;19;20006;-79
2023/07/04 08:59:38;;;;;;;9.43;3.45;;;;;;;23.17;46.74;99673.53;12226071;19;20038;-79
2023/07/04 09:03:50;;;;;;;8.25;3.15;;;;;;;23.19;45.33;99674.00;12200189;19;20392;-78
2023/07/04 09:08:09;;;;;;;6.28;3.30;;;;;;;23.42;43.95;99679.38;12219416;19;20010;-78
2023/07/04 09:12:11;;;;;;;7.78;3.33;;;;;;;23.57;42.86;99677.97;12193277;19;20556;-77
2023/07/04 09:16:30;;;;;;;7.57;3.22;;;;;;;23.68;42.98;99684.84;12215902;19;20023;-78
2023/07/04 09:20:37;;;;;;;6.38;3.38;;;;;;;23.86;41.82;99679.97;12217876;19;20018;-78
2023/07/04 09:24:39;;;;;;;8.60;3.50;;;;;;;24.08;42.12;99676.78;12192560;19;20018;-77
2023/07/04 09:28:44;;;;;;;8.53;3.10;;;;;;;24.26;41.51;99671.84;12214090;19;20024;-78
2023/07/04 09:32:46;;;;;;;8.30;3.10;;;;;;;24.47;40.02;99677.47;12215281;19;20506;-78
2023/07/04 09:36:52;;;;;;;7.75;3.50;;;;;;;24.64;39.09;99675.66;12191641;19;20006;-79
2023/07/04 09:40:55;;;;;;;5.20;2.55;;;;;;;24.71;38.28;99673.09;12214782;19;20010;-78
2023/07/04 09:45:05;;;;;;;8.52;2.95;;;;;;;24.75;37.04;99677.69;12192228;19;20084;-77
2023/07/04 09:49:27;;;;;;;8.35;3.20;;;;;;;24.85;36.84;99676.41;12214390;19;20010;-78
2023/07/04 09:53:29;;;;;;;8.25;3.17;;;;;;;25.03;37.19;99677.03;12212202;19;20007;-78
2023/07/04 09:57:32;;;;;;;5.10;2.87;;;;;;;25.20;36.58;99667.56;12191594;19;20006;-77
2023/07/04 10:01:38;;;;;;;8.20;3.38;;;;;;;25.45;35.93;99672.03;12210871;19;20764;-78
2023/07/04 10:05:42;;;;;;;6.97;3.03;;;;;;;25.43;35.84;99660.28;12208122;19;20031;-78
2023/07/04 10:09:51;;;;;;;7.55;2.90;;;;;;;25.48;35.17;99669.69;12189814;19;20089;-79
2023/07/04 10:14:02;;;;;;;12.68;3.95;;;;;;;25.57;35.21;99662.72;12209426;19;20027;-79
2023/07/04 10:18:05;;;;;;;6.53;3.15;;;;;;;25.82;34.42;99663.56;12192873;19;20082;-78
2023/07/04 10:22:07;;;;;;;9.82;3.92;;;;;;;26.08;32.64;99660.31;12226414;19;20027;-82
2023/07/04 10:26:12;;;;;;;5.18;3.25;;;;;;;26.16;33.25;99644.41;12226820;19;20013;-79
2023/07/04 10:30:18;;;;;;;6.60;3.55;;;;;;;26.27;33.63;99641.91;12204848;19;20018;-79
2023/07/04 10:34:23;;;;;;;7.32;3.97;;;;;;;26.39;31.60;99641.84;12224693;19;20517;-79
2023/07/04 10:38:34;;;;;;;;;;;;;;;26.29;32.80;99643.16;12225575;19;20086;-79
2023/07/04 10:43:12;;;;;;;7.50;3.83;;;;;;;26.31;32.67;99640.00;12215199;19;19919;-79
2023/07/04 10:47:22;;;;;;;6.38;3.70;;;;;;;26.44;31.70;99637.91;12228712;19;20024;-79
2023/07/04 10:51:36;;;;;;;8.65;3.72;;;;;;;26.54;31.56;99631.78;12202785;19;20536;-78
2023/07/04 10:56:00;;;;;;;7.32;3.95;;;;;;;26.81;31.63;99630.09;12219529;19;20017;-78
2023/07/04 11:00:17;;;;;;;9.10;4.60;;;;;;;27.13;29.69;99625.28;12197786;19;20025;-79
2023/07/04 11:04:31;;;;;;;8.27;4.70;;;;;;;26.99;29.25;99628.53;12228225;19;20068;-79
2023/07/04 11:08:35;;;;;;;9.97;4.47;;;;;;;27.25;28.93;99610.25;12247636;19;20011;-78
2023/07/04 11:12:39;;;;;;;10.18;4.55;;;;;;;27.57;28.44;99607.31;12228156;19;20007;-79
2023/07/04 11:16:44;;;;;;;7.60;3.67;;;;;;;27.79;28.04;99608.69;12226657;19;20032;-79
2023/07/04 11:20:54;;;;;;;9.48;4.63;;;;;;;27.88;28.03;99604.44;12230741;19;20002;-78
2023/07/04 11:25:18;;;;;;;8.02;4.10;;;;;;;28.13;27.83;99593.63;12206290;19;20027;-80
2023/07/04 11:29:21;;;;;;;;;;;;;;;28.34;26.45;99607.38;12229521;19;20017;-80
2023/07/04 11:33:39;;;;;;;11.68;5.32;;;;;;;28.59;25.17;99599.41;12205125;19;20344;-78
2023/07/04 11:37:52;;;;;;;10.73;6.47;;;;;;;28.71;25.71;99597.59;12232107;19;20006;-79
2023/07/04 11:41:55;;;;;;;8.20;5.72;;;;;;;28.74;25.93;99591.19;12211900;19;20015;-80
2023/07/04 11:46:01;;;;;;;8.48;6.03;;;;;;;28.88;25.38;99599.91;12226088;19;20510;-79
2023/07/04 11:50:12;;;;;;;9.52;5.95;;;;;;;28.94;25.88;99601.22;12232723;19;20076;-79
2023/07/04 11:54:15;;;;;;;11.43;6.05;;;;;;;29.27;25.83;99582.75;12203328;19;20023;-78
2023/07/04 11:58:17;;;;;;;;;;;;;;;29.30;25.23;99571.47;12228038;19;20017;-79
2023/07/04 12:02:26;;;;;;;9.02;5.75;;;;;;;29.24;24.65;99575.00;12226472;19;19966;-78
2023/07/04 12:06:41;;;;;;;8.23;5.75;;;;;;;29.35;24.98;99567.47;12202399;19;20027;-79
2023/07/04 12:10:43;;;;;;;12.05;6.28;;;;;;;29.61;24.92;99571.50;12226942;19;20099;-79
2023/07/04 12:14:47;;;;;;;7.97;6.05;;;;;;;29.77;24.60;99579.84;12225216;19;20021;-80
2023/07/04 12:18:51;;;;;;;8.48;6.05;;;;;;;29.92;24.92;99568.28;12208664;19;20010;-78
2023/07/04 12:22:54;;;;;;;9.43;5.90;;;;;;;30.74;24.20;99568.41;12228244;19;20006;-79
2023/07/04 12:26:59;;;;;;;8.40;5.78;;;;;;;31.70;23.10;99551.25;12205341;19;20015;-79
2023/07/04 12:31:04;;;;;;;9.95;6.32;;;;;;;32.25;22.29;99552.31;12222817;19;20006;-81
2023/07/04 12:35:16;;;;;;;8.85;6.43;;;;;;;33.20;21.48;99561.41;12223916;19;20019;-78
2023/07/04 12:39:20;;;;;;;11.45;6.63;;;;;;;33.74;20.97;99539.31;12204455;19;20010;-79
2023/07/04 12:43:29;;;;;;;9.38;6.07;;;;;;;34.45;20.53;99533.25;12225136;19;20508;-80
2023/07/04 12:47:36;;;;;;;8.65;5.82;;;;;;;35.09;19.61;99548.31;12226893;19;20011;-80
2023/07/04 12:51:44;;;;;;;9.20;6.28;;;;;;;35.12;18.98;99536.03;12208869;19;20011;-80
2023/07/04 12:55:46;;;;;;;6.68;5.57;;;;;;;35.55;19.13;99518.44;12223617;19;20011;-79
2023/07/04 12:59:48;;;;;;;7.47;5.30;;;;;;;36.03;18.92;99523.97;12224710;19;20003;-79
2023/07/04 13:03:58;;;;;;;7.50;5.18;;;;;;;36.56;18.10;99526.50;12199972;19;20011;-79
2023/07/04 13:08:01;;;;;;;8.57;5.17;;;;;;;37.16;17.07;99516.91;12219637;19;20559;-80
2023/07/04 13:12:05;;;;;;;7.60;4.88;;;;;;;37.48;17.04;99527.03;12220110;19;20007;-79
2023/07/04 13:16:12;;;;;;;7.93;5.03;;;;;;;37.79;17.26;99500.94;12245244;19;20010;-79
2023/07/04 13:20:16;;;;;;;6.63;4.88;;;;;;;37.99;17.38;99495.19;12248390;19;20017;-78
2023/07/04 13:24:25;;;;;;;6.97;4.80;;;;;;;37.95;16.50;99503.06;12222626;19;20022;-80
2023/07/04 13:28:36;;;;;;;7.10;5.20;;;;;;;37.61;16.83;99510.72;12243047;19;20404;-80
2023/07/04 13:32:41;;;;;;;12.88;5.07;;;;;;;37.34;16.89;99516.56;12239911;19;20578;-79
2023/07/04 13:36:53;;;;;;;10.32;5.20;;;;;;;37.42;17.35;99511.47;12192623;19;20023;-80
2023/07/04 13:40:54;;;;;;;6.47;4.53;;;;;;;38.04;17.21;99486.81;12218507;19;20002;-80
2023/07/04 13:44:56;;;;;;;9.90;5.35;;;;;;;38.00;17.00;99488.19;12191054;19;20018;-79
2023/07/04 13:49:02;;;;;;;7.30;5.22;;;;;;;37.85;17.03;99490.53;12215324;19;20063;-79
2023/07/04 13:53:07;;;;;;;9.60;6.00;;;;;;;38.02;16.92;99485.66;12212104;19;20036;-80
2023/07/04 13:57:16;;;;;;;9.95;6.50;;;;;;;38.30;16.79;99479.25;12194946;19;20014;-79
2023/07/04 14:01:19;;;;;;;9.02;6.65;;;;;;;38.45;16.77;99482.63;12218450;19;20015;-79
2023/07/04 14:05:24;;;;;;;8.23;5.90;;;;;;;38.27;16.51;99467.81;12219052;19;20370;-77
2023/07/04 14:09:46;;;;;;;8.73;6.07;;;;;;;37.89;17.36;99476.06;12194956;19;20010;-79
2023/07/04 14:13:51;;;;;;;9.07;6.65;;;;;;;37.75;17.20;99471.41;12217315;19;20002;-76
2023/07/04 14:17:58;;;;;;;12.45;7.38;;;;;;;38.30;17.24;99456.22;12194019;19;20002;-80
2023/07/04 14:22:03;;;;;;;12.27;6.68;;;;;;;38.07;17.34;99460.03;12217439;19;20371;-80
2023/07/04 14:26:12;;;;;;;11.73;8.68;;;;;;;38.52;16.82;99456.56;12213066;19;20023;-80
2023/07/04 14:30:17;;;;;;;9.95;7.25;;;;;;;39.18;16.86;99445.78;12194778;19;20014;-80
2023/07/04 14:34:20;;;;;;;10.65;7.88;;;;;;;39.36;16.51;99453.13;12219819;19;20007;-78
2023/07/04 14:38:23;;;;;;;11.85;7.80;;;;;;;39.15;16.54;99446.69;12207707;19;20062;-78
2023/07/04 14:42:25;;;;;;;12.77;7.55;;;;;;;39.65;16.78;99442.38;12188329;19;20027;-78
2023/07/04 14:46:32;;;;;;;9.93;7.00;;;;;;;38.82;16.76;99433.56;12214532;19;20018;-79
2023/07/04 14:50:34;;;;;;;9.48;7.13;;;;;;;38.08;17.82;99438.66;12216755;19;20359;-79
2023/07/04 14:54:37;;;;;;;10.93;7.25;;;;;;;38.75;17.33;99420.16;12186965;19;20723;-80
2023/07/04 14:58:42;;;;;;;11.60;7.22;;;;;;;38.34;17.58;99412.16;12242067;19;20877;-78
2023/07/04 15:02:47;;;;;;;12.88;8.48;;;;;;;38.41;17.25;99415.72;12231551;19;20018;-79
2023/07/04 15:06:49;;;;;;;14.82;8.18;;;;;;;37.66;17.81;99407.97;12193787;19;20467;-80
2023/07/04 15:10:51;;;;;;;10.70;8.65;;;;;;;37.79;17.66;99408.91;12222564;19;20022;-79
2023/07/04 15:14:53;;;;;;;11.70;9.23;;;;;;;38.25;17.45;99407.03;12198741;19;20578;-79
2023/07/04 15:18:56;;;;;;;12.27;7.82;;;;;;;38.79;17.16;99395.00;12222845;19;20006;-80
2023/07/04 15:22:58;;;;;;;11.88;7.68;;;;;;;38.28;17.46;99401.22;12226052;19;20006;-80
2023/07/04 15:27:01;;;;;;;13.10;7.80;;;;;;;36.17;18.15;99402.53;12198672;19;20602;-80
2023/07/04 15:31:03;;;;;;;11.77;8.05;;;;;;;33.78;20.02;99400.06;12224651;19;20019;-79
2023/07/04 15:35:05;;;;;;;11.60;8.05;;;;;;;32.33;21.53;99394.28;12220909;19;20083;-79
2023/07/04 15:39:07;;;;;;;11.07;7.22;;;;;;;31.65;22.09;99379.94;12204914;19;20006;-78
2023/07/04 15:43:13;;;;;;;11.10;6.97;;;;;;;31.13;23.11;99368.75;12220378;19;20025;-79
2023/07/04 15:47:17;;;;;;;10.73;6.78;;;;;;;30.59;24.18;99373.28;12227715;19;20014;-77
2023/07/04 15:51:21;;;;;;;9.60;6.18;;;;;;;30.28;24.48;99369.81;12199248;19;20027;-78
2023/07/04 15:55:24;;;;;;;13.52;6.10;;;;;;;29.93;24.63;99382.47;12216747;19;20014;-78
2023/07/04 15:59:27;;;;;;;9.05;6.20;;;;;;;29.38;25.17;99364.38;12215942;19;20010;-79
2023/07/04 16:03:30;;;;;;;16.88;6.60;;;;;;;29.01;25.79;99365.94;12199576;19;20007;-80
2023/07/04 16:07:32;;;;;;;12.43;6.57;;;;;;;28.88;25.86;99364.53;12222685;19;20007;-79
2023/07/04 16:11:36;;;;;;;10.98;6.20;;;;;;;28.59;26.27;99366.16;12219606;19;20011;-79
2023/07/04 16:15:39;;;;;;;9.13;5.72;;;;;;;28.32;26.49;99368.16;12192657;19;20476;-78
2023/07/04 16:19:41;;;;;;;10.18;5.70;;;;;;;27.92;26.74;99366.66;12219683;19;20027;-79
2023/07/04 16:23:43;;;;;;;9.27;5.50;;;;;;;27.72;27.03;99366.69;12221407;19;20036;-79
2023/07/04 16:27:45;;;;;;;11.02;5.78;;;;;;;27.79;27.48;99349.03;12194473;19;20011;-78
2023/07/04 16:31:46;;;;;;;10.52;5.35;;;;;;;28.15;26.88;99356.13;12215861;19;20010;-77
2023/07/04 16:35:48;;;;;;;16.17;5.65;;;;;;;28.17;27.40;99350.91;12217487;19;20027;-78
2023/07/04 16:39:50;;;;;;;8.00;4.93;;;;;;;28.09;27.14;99354.00;12198805;19;20007;-78
2023/07/04 16:43:52;;;;;;;11.95;5.60;;;;;;;27.85;27.80;99355.22;12219614;19;20036;-81
2023/07/04 16:47:55;;;;;;;12.75;6.05;;;;;;;27.87;27.79;99344.31;12202572;19;20376;-78
2023/07/04 16:51:56;;;;;;;7.88;5.25;;;;;;;27.83;27.37;99349.09;12213271;19;20070;-78
2023/07/04 16:56:01;;;;;;;11.68;5.85;;;;;;;27.67;27.99;99344.34;12210719;19;20122;-78
2023/07/04 17:00:04;;;;;;;8.80;4.97;;;;;;;27.58;27.90;99343.78;12191905;19;20012;-78
2023/07/04 17:04:07;;;;;;;7.68;5.30;;;;;;;27.45;28.03;99354.41;12215016;19;20010;-77
2023/07/04 17:08:09;;;;;;;9.15;4.72;;;;;;;27.27;27.86;99347.59;12213475;19;20014;-80
2023/07/04 17:12:11;;;;;;;7.07;4.57;;;;;;;27.10;28.44;99343.22;12196535;19;20613;-79
2023/07/04 17:16:13;;;;;;;8.88;4.68;;;;;;;27.01;28.23;99334.94;12221613;19;20022;-78
2023/07/04 17:20:15;;;;;;;9.77;5.00;;;;;;;27.00;28.88;99338.13;12226230;19;20011;-79
2023/07/04 17:24:17;;;;;;;18.52;5.95;;;;;;;26.95;29.26;99336.44;12202814;19;20467;-78
2023/07/04 17:28:19;;;;;;;11.82;5.07;;;;;;;26.97;28.96;99342.50;12227040;19;20015;-79
2023/07/04 17:32:20;;;;;;;7.20;4.65;;;;;;;26.92;29.16;99334.34;12229619;19;20423;-79
2023/07/04 17:36:22;;;;;;;6.40;4.30;;;;;;;26.86;29.23;99335.00;12204419;19;20030;-79
2023/07/04 17:40:27;;;;;;;8.48;4.88;;;;;;;26.88;29.12;99327.78;12223499;19;20094;-78
2023/07/04 17:44:31;;;;;;;9.73;4.60;;;;;;;26.79;29.35;99322.34;12222102;19;20465;-79
2023/07/04 17:48:34;;;;;;;6.80;3.65;;;;;;;26.50;29.56;99320.06;12198436;19;20014;-79
2023/07/04 17:52:36;;;;;;;7.72;3.70;;;;;;;26.30;29.25;99319.19;12224455;19;20007;-79
2023/07/04 17:56:37;;;;;;;7.88;3.97;;;;;;;26.14;29.60;99317.19;12219795;19;20010;-78
2023/07/04 18:00:39;;;;;;;8.27;4.03;;;;;;;25.99;29.62;99315.22;12203060;19;20007;-78
2023/07/04 18:04:42;;;;;;;7.05;3.78;;;;;;;25.86;30.00;99306.03;12220199;19;20034;-79
2023/07/04 18:08:44;;;;;;;7.78;3.75;;;;;;;25.76;30.23;99308.53;12224489;19;20022;-78
2023/07/04 18:12:46;;;;;;;9.27;3.80;;;;;;;25.65;30.14;99302.63;12196701;19;20082;-79
2023/07/04 18:16:48;;;;;;;8.13;3.78;;;;;;;25.55;30.60;99300.34;12214941;19;20076;-81
2023/07/04 18:21:16;;;;;;;9.75;4.15;;;;;;;25.57;31.66;99293.16;12205576;19;20541;-79
2023/07/04 18:25:19;;;;;;;11.00;3.83;;;;;;;25.53;32.01;99294.25;12192844;19;20014;-79
2023/07/04 18:29:23;;;;;;;5.85;3.22;;;;;;;25.41;32.54;99292.34;12216095;19;20024;-79
2023/07/04 18:33:25;;;;;;;7.13;3.30;;;;;;;25.23;32.98;99289.03;12191516;19;20011;-77
2023/07/04 18:37:28;;;;;;;6.55;3.58;;;;;;;25.08;33.68;99281.31;12211855;19;20038;-78
2023/07/04 18:41:39;;;;;;;5.22;3.25;;;;;;;24.93;33.87;99288.56;12222767;19;20024;-79
2023/07/04 18:45:41;;;;;;;7.65;3.92;;;;;;;24.75;34.42;99280.41;12216453;19;20043;-78
2023/07/04 18:49:48;;;;;;;7.25;3.38;;;;;;;24.62;35.05;99280.78;12254710;19;20010;-78
2023/07/04 18:53:54;;;;;;;6.78;3.70;;;;;;;24.47;35.13;99282.34;12242457;19;20019;-77